sensor_id;sensor_type;location;lat;lon;timestamp;temperature;humidity
51922;DHT22;37948;53.260;6.394;2022-10-16T00:01:40;12.60;99.90
51922;DHT22;37948;53.260;6.394;2022-10-16T00:04:06;12.60;99.90
51922;DHT22;37948;53.260;6.394;2022-10-16T00:06:32;12.60;99.90
51922;DHT22;37948;53.260;6.394;2022-10-16T00:08:58;12.50;99.90
51922;DHT22;37948;53.260;6.394;2022-10-16T00:11:29;12.50;99.90
51922;DHT22;37948;53.260;6.394;2022-10-16T00:13:58;12.50;99.90
51922;DHT22;37948;53.260;6.394;2022-10-16T00:16:25;12.50;99.90
51922;DHT22;37948;53.260;6.394;2022-10-16T00:18:50;12.50;99.90
51922;DHT22;37948;53.260;6.394;2022-10-16T00:21:24;12.40;99.90
51922;DHT22;37948;53.260;6.394;2022-10-16T00:23:51;12.50;99.90
51922;DHT22;37948;53.260;6.394;2022-10-16T00:26:18;12.50;99.90
51922;DHT22;37948;53.260;6.394;2022-10-16T00:28:48;12.50;99.90
51922;DHT22;37948;53.260;6.394;2022-10-16T00:31:15;12.50;99.90
51922;DHT22;37948;53.260;6.394;2022-10-16T00:33:41;12.50;99.90
51922;DHT22;37948;53.260;6.394;2022-10-16T00:36:10;12.40;99.90
51922;DHT22;37948;53.260;6.394;2022-10-16T00:38:37;12.40;99.90
51922;DHT22;37948;53.260;6.394;2022-10-16T00:41:03;12.40;99.90
51922;DHT22;37948;53.260;6.394;2022-10-16T00:46:02;12.40;99.90
51922;DHT22;37948;53.260;6.394;2022-10-16T00:48:29;12.40;99.90
51922;DHT22;37948;53.260;6.394;2022-10-16T00:50:56;12.40;99.90
51922;DHT22;37948;53.260;6.394;2022-10-16T00:53:22;12.40;99.90
51922;DHT22;37948;53.260;6.394;2022-10-16T00:55:48;12.40;99.90
51922;DHT22;37948;53.260;6.394;2022-10-16T00:58:14;12.40;99.90
51922;DHT22;37948;53.260;6.394;2022-10-16T01:00:39;12.40;99.90
51922;DHT22;37948;53.260;6.394;2022-10-16T01:03:30;12.40;99.90
51922;DHT22;37948;53.260;6.394;2022-10-16T01:09:02;12.40;99.90
51922;DHT22;37948;53.260;6.394;2022-10-16T01:14:32;12.30;99.90
51922;DHT22;37948;53.260;6.394;2022-10-16T01:17:08;12.30;99.90
51922;DHT22;37948;53.260;6.394;2022-10-16T01:22:24;12.40;99.90
51922;DHT22;37948;53.260;6.394;2022-10-16T01:24:52;12.40;99.90
51922;DHT22;37948;53.260;6.394;2022-10-16T01:27:28;12.40;99.90
51922;DHT22;37948;53.260;6.394;2022-10-16T01:30:10;12.40;99.90
51922;DHT22;37948;53.260;6.394;2022-10-16T01:32:53;12.40;99.90
51922;DHT22;37948;53.260;6.394;2022-10-16T01:35:52;12.40;99.90
51922;DHT22;37948;53.260;6.394;2022-10-16T01:38:29;12.40;99.90
51922;DHT22;37948;53.260;6.394;2022-10-16T01:41:09;12.40;99.90
51922;DHT22;37948;53.260;6.394;2022-10-16T01:43:42;12.40;99.90
51922;DHT22;37948;53.260;6.394;2022-10-16T01:46:10;12.50;99.90
51922;DHT22;37948;53.260;6.394;2022-10-16T01:48:38;12.50;99.90
51922;DHT22;37948;53.260;6.394;2022-10-16T01:51:12;12.50;99.90
51922;DHT22;37948;53.260;6.394;2022-10-16T01:53:40;12.50;99.90
51922;DHT22;37948;53.260;6.394;2022-10-16T01:56:10;12.50;99.90
51922;DHT22;37948;53.260;6.394;2022-10-16T01:58:50;12.60;99.90
51922;DHT22;37948;53.260;6.394;2022-10-16T02:01:19;12.60;99.90
51922;DHT22;37948;53.260;6.394;2022-10-16T02:03:46;12.60;99.90
51922;DHT22;37948;53.260;6.394;2022-10-16T02:06:15;12.60;99.90
51922;DHT22;37948;53.260;6.394;2022-10-16T02:08:41;12.60;99.90
51922;DHT22;37948;53.260;6.394;2022-10-16T02:11:09;12.60;99.90
51922;DHT22;37948;53.260;6.394;2022-10-16T02:13:46;12.60;99.90
51922;DHT22;37948;53.260;6.394;2022-10-16T02:16:13;12.60;99.90
51922;DHT22;37948;53.260;6.394;2022-10-16T02:18:40;12.70;99.90
51922;DHT22;37948;53.260;6.394;2022-10-16T02:21:14;12.70;99.90
51922;DHT22;37948;53.260;6.394;2022-10-16T02:23:58;12.70;99.90
51922;DHT22;37948;53.260;6.394;2022-10-16T02:29:16;12.70;99.90
51922;DHT22;37948;53.260;6.394;2022-10-16T02:31:47;12.70;99.90
51922;DHT22;37948;53.260;6.394;2022-10-16T02:34:16;12.70;99.90
51922;DHT22;37948;53.260;6.394;2022-10-16T02:36:44;12.70;99.90
51922;DHT22;37948;53.260;6.394;2022-10-16T02:39:11;12.70;99.90
51922;DHT22;37948;53.260;6.394;2022-10-16T02:41:37;12.70;99.90
51922;DHT22;37948;53.260;6.394;2022-10-16T02:44:02;12.80;99.90
51922;DHT22;37948;53.260;6.394;2022-10-16T02:46:28;12.80;99.90
51922;DHT22;37948;53.260;6.394;2022-10-16T02:48:54;12.80;99.90
51922;DHT22;37948;53.260;6.394;2022-10-16T02:51:19;12.80;99.90
51922;DHT22;37948;53.260;6.394;2022-10-16T02:53:45;12.80;99.90
51922;DHT22;37948;53.260;6.394;2022-10-16T02:56:10;12.70;99.90
51922;DHT22;37948;53.260;6.394;2022-10-16T02:58:36;12.80;99.90
51922;DHT22;37948;53.260;6.394;2022-10-16T03:01:01;12.70;99.90
51922;DHT22;37948;53.260;6.394;2022-10-16T03:03:27;12.70;99.90
51922;DHT22;37948;53.260;6.394;2022-10-16T03:05:52;12.70;99.90
51922;DHT22;37948;53.260;6.394;2022-10-16T03:08:18;12.70;99.90
51922;DHT22;37948;53.260;6.394;2022-10-16T03:10:49;12.60;99.90
51922;DHT22;37948;53.260;6.394;2022-10-16T03:13:15;12.60;99.90
51922;DHT22;37948;53.260;6.394;2022-10-16T03:15:40;12.60;99.90
51922;DHT22;37948;53.260;6.394;2022-10-16T03:18:06;12.60;99.90
51922;DHT22;37948;53.260;6.394;2022-10-16T03:20:31;12.50;99.90
51922;DHT22;37948;53.260;6.394;2022-10-16T03:22:57;12.50;99.90
51922;DHT22;37948;53.260;6.394;2022-10-16T03:25:22;12.60;99.90
51922;DHT22;37948;53.260;6.394;2022-10-16T03:27:48;12.50;99.90
51922;DHT22;37948;53.260;6.394;2022-10-16T03:30:14;12.50;99.90
51922;DHT22;37948;53.260;6.394;2022-10-16T03:32:39;12.50;99.90
51922;DHT22;37948;53.260;6.394;2022-10-16T03:35:05;12.50;99.90
51922;DHT22;37948;53.260;6.394;2022-10-16T03:37:31;12.50;99.90
51922;DHT22;37948;53.260;6.394;2022-10-16T03:39:56;12.50;99.90
51922;DHT22;37948;53.260;6.394;2022-10-16T03:42:22;12.50;99.90
51922;DHT22;37948;53.260;6.394;2022-10-16T03:44:47;12.40;99.90
51922;DHT22;37948;53.260;6.394;2022-10-16T03:47:13;12.40;99.90
51922;DHT22;37948;53.260;6.394;2022-10-16T03:49:39;12.40;99.90
51922;DHT22;37948;53.260;6.394;2022-10-16T03:52:04;12.40;99.90
51922;DHT22;37948;53.260;6.394;2022-10-16T03:54:30;12.40;99.90
51922;DHT22;37948;53.260;6.394;2022-10-16T03:56:55;12.30;99.90
51922;DHT22;37948;53.260;6.394;2022-10-16T03:59:21;12.40;99.90
51922;DHT22;37948;53.260;6.394;2022-10-16T04:01:46;12.40;99.90
51922;DHT22;37948;53.260;6.394;2022-10-16T04:04:12;12.30;99.90
51922;DHT22;37948;53.260;6.394;2022-10-16T04:06:37;12.30;99.90
51922;DHT22;37948;53.260;6.394;2022-10-16T04:09:03;12.30;99.90
51922;DHT22;37948;53.260;6.394;2022-10-16T04:11:28;12.30;99.90
51922;DHT22;37948;53.260;6.394;2022-10-16T04:13:54;12.30;99.90
51922;DHT22;37948;53.260;6.394;2022-10-16T04:16:20;12.30;99.90
51922;DHT22;37948;53.260;6.394;2022-10-16T04:18:46;12.30;99.90
51922;DHT22;37948;53.260;6.394;2022-10-16T04:21:11;12.30;99.90
51922;DHT22;37948;53.260;6.394;2022-10-16T04:23:37;12.30;99.90
51922;DHT22;37948;53.260;6.394;2022-10-16T04:26:02;12.30;99.90
51922;DHT22;37948;53.260;6.394;2022-10-16T04:28:28;12.40;99.90
51922;DHT22;37948;53.260;6.394;2022-10-16T04:30:54;12.40;99.90
51922;DHT22;37948;53.260;6.394;2022-10-16T04:33:19;12.40;99.90
51922;DHT22;37948;53.260;6.394;2022-10-16T04:35:45;12.40;99.90
51922;DHT22;37948;53.260;6.394;2022-10-16T04:38:10;12.40;99.90
51922;DHT22;37948;53.260;6.394;2022-10-16T04:40:36;12.40;99.90
51922;DHT22;37948;53.260;6.394;2022-10-16T04:43:05;12.40;99.90
51922;DHT22;37948;53.260;6.394;2022-10-16T04:45:31;12.50;99.90
51922;DHT22;37948;53.260;6.394;2022-10-16T04:47:57;12.40;99.90
51922;DHT22;37948;53.260;6.394;2022-10-16T04:50:23;12.50;99.90
51922;DHT22;37948;53.260;6.394;2022-10-16T04:52:49;12.40;99.90
51922;DHT22;37948;53.260;6.394;2022-10-16T04:55:14;12.50;99.90
51922;DHT22;37948;53.260;6.394;2022-10-16T04:57:40;12.40;99.90
51922;DHT22;37948;53.260;6.394;2022-10-16T05:00:07;12.50;99.90
51922;DHT22;37948;53.260;6.394;2022-10-16T05:02:33;12.50;99.90
51922;DHT22;37948;53.260;6.394;2022-10-16T05:04:59;12.50;99.90
51922;DHT22;37948;53.260;6.394;2022-10-16T05:07:24;12.50;99.90
51922;DHT22;37948;53.260;6.394;2022-10-16T05:09:50;12.50;99.90
51922;DHT22;37948;53.260;6.394;2022-10-16T05:12:16;12.50;99.90
51922;DHT22;37948;53.260;6.394;2022-10-16T05:14:41;12.50;99.90
51922;DHT22;37948;53.260;6.394;2022-10-16T05:17:07;12.50;99.90
51922;DHT22;37948;53.260;6.394;2022-10-16T05:19:32;12.50;99.90
51922;DHT22;37948;53.260;6.394;2022-10-16T05:21:58;12.50;99.90
51922;DHT22;37948;53.260;6.394;2022-10-16T05:24:23;12.60;99.90
51922;DHT22;37948;53.260;6.394;2022-10-16T05:26:50;12.60;99.90
51922;DHT22;37948;53.260;6.394;2022-10-16T05:29:15;12.50;99.90
51922;DHT22;37948;53.260;6.394;2022-10-16T05:31:41;12.50;99.90
51922;DHT22;37948;53.260;6.394;2022-10-16T05:34:06;12.60;99.90
51922;DHT22;37948;53.260;6.394;2022-10-16T05:36:32;12.50;99.90
51922;DHT22;37948;53.260;6.394;2022-10-16T05:38:58;12.60;99.90
51922;DHT22;37948;53.260;6.394;2022-10-16T05:41:23;12.50;99.90
51922;DHT22;37948;53.260;6.394;2022-10-16T05:43:51;12.60;99.90
51922;DHT22;37948;53.260;6.394;2022-10-16T05:46:17;12.50;99.90
51922;DHT22;37948;53.260;6.394;2022-10-16T05:48:43;12.50;99.90
51922;DHT22;37948;53.260;6.394;2022-10-16T05:51:13;12.50;99.90
51922;DHT22;37948;53.260;6.394;2022-10-16T05:53:39;12.50;99.90
51922;DHT22;37948;53.260;6.394;2022-10-16T05:56:06;12.50;99.90
51922;DHT22;37948;53.260;6.394;2022-10-16T05:58:36;12.50;99.90
51922;DHT22;37948;53.260;6.394;2022-10-16T06:01:15;12.50;99.90
51922;DHT22;37948;53.260;6.394;2022-10-16T06:03:41;12.40;99.90
51922;DHT22;37948;53.260;6.394;2022-10-16T06:06:18;12.40;99.90
51922;DHT22;37948;53.260;6.394;2022-10-16T06:08:46;12.40;99.90
51922;DHT22;37948;53.260;6.394;2022-10-16T06:11:15;12.40;99.90
51922;DHT22;37948;53.260;6.394;2022-10-16T06:13:41;12.40;99.90
51922;DHT22;37948;53.260;6.394;2022-10-16T06:16:08;12.40;99.90
51922;DHT22;37948;53.260;6.394;2022-10-16T06:18:34;12.40;99.90
51922;DHT22;37948;53.260;6.394;2022-10-16T06:20:59;12.30;99.90
51922;DHT22;37948;53.260;6.394;2022-10-16T06:23:31;12.40;99.90
51922;DHT22;37948;53.260;6.394;2022-10-16T06:26:07;12.40;99.90
51922;DHT22;37948;53.260;6.394;2022-10-16T06:28:34;12.40;99.90
51922;DHT22;37948;53.260;6.394;2022-10-16T06:31:01;12.50;99.90
51922;DHT22;37948;53.260;6.394;2022-10-16T06:33:27;12.50;99.90
51922;DHT22;37948;53.260;6.394;2022-10-16T06:35:52;12.40;99.90
51922;DHT22;37948;53.260;6.394;2022-10-16T06:38:18;12.50;99.90
51922;DHT22;37948;53.260;6.394;2022-10-16T06:40:43;12.50;99.90
51922;DHT22;37948;53.260;6.394;2022-10-16T06:43:09;12.50;99.90
51922;DHT22;37948;53.260;6.394;2022-10-16T06:45:34;12.50;99.90
51922;DHT22;37948;53.260;6.394;2022-10-16T06:48:00;12.50;99.90
51922;DHT22;37948;53.260;6.394;2022-10-16T06:50:25;12.50;99.90
51922;DHT22;37948;53.260;6.394;2022-10-16T06:52:51;12.50;99.90
51922;DHT22;37948;53.260;6.394;2022-10-16T06:55:17;12.50;99.90
51922;DHT22;37948;53.260;6.394;2022-10-16T06:57:43;12.50;99.90
51922;DHT22;37948;53.260;6.394;2022-10-16T07:00:09;12.50;99.90
51922;DHT22;37948;53.260;6.394;2022-10-16T07:02:34;12.60;99.90
51922;DHT22;37948;53.260;6.394;2022-10-16T07:05:00;12.60;99.90
51922;DHT22;37948;53.260;6.394;2022-10-16T07:07:26;12.60;99.90
51922;DHT22;37948;53.260;6.394;2022-10-16T07:09:52;12.60;99.90
51922;DHT22;37948;53.260;6.394;2022-10-16T07:12:18;12.60;99.90
51922;DHT22;37948;53.260;6.394;2022-10-16T07:14:43;12.70;99.90
51922;DHT22;37948;53.260;6.394;2022-10-16T07:17:09;12.70;99.90
51922;DHT22;37948;53.260;6.394;2022-10-16T07:19:34;12.70;99.90
51922;DHT22;37948;53.260;6.394;2022-10-16T07:22:00;12.80;99.90
51922;DHT22;37948;53.260;6.394;2022-10-16T07:24:26;12.80;99.90
51922;DHT22;37948;53.260;6.394;2022-10-16T07:26:52;12.70;99.90
51922;DHT22;37948;53.260;6.394;2022-10-16T07:29:20;12.80;99.90
51922;DHT22;37948;53.260;6.394;2022-10-16T07:31:46;12.80;99.90
51922;DHT22;37948;53.260;6.394;2022-10-16T07:34:13;12.80;99.90
51922;DHT22;37948;53.260;6.394;2022-10-16T07:36:39;12.80;99.90
51922;DHT22;37948;53.260;6.394;2022-10-16T07:39:05;12.80;99.90
51922;DHT22;37948;53.260;6.394;2022-10-16T07:41:31;12.90;99.90
51922;DHT22;37948;53.260;6.394;2022-10-16T07:43:58;12.80;99.90
51922;DHT22;37948;53.260;6.394;2022-10-16T07:46:28;12.90;99.90
51922;DHT22;37948;53.260;6.394;2022-10-16T07:48:54;12.80;99.90
51922;DHT22;37948;53.260;6.394;2022-10-16T07:51:23;12.80;99.90
51922;DHT22;37948;53.260;6.394;2022-10-16T07:53:49;12.80;99.90
51922;DHT22;37948;53.260;6.394;2022-10-16T07:56:17;12.80;99.90
51922;DHT22;37948;53.260;6.394;2022-10-16T07:58:43;12.80;99.90
51922;DHT22;37948;53.260;6.394;2022-10-16T08:01:11;12.80;99.90
51922;DHT22;37948;53.260;6.394;2022-10-16T08:03:37;12.80;99.90
51922;DHT22;37948;53.260;6.394;2022-10-16T08:06:04;12.80;99.90
51922;DHT22;37948;53.260;6.394;2022-10-16T08:08:30;12.80;99.90
51922;DHT22;37948;53.260;6.394;2022-10-16T08:10:56;12.90;99.90
51922;DHT22;37948;53.260;6.394;2022-10-16T08:13:21;12.90;99.90
51922;DHT22;37948;53.260;6.394;2022-10-16T08:15:47;12.90;99.90
51922;DHT22;37948;53.260;6.394;2022-10-16T08:18:14;13.00;99.90
51922;DHT22;37948;53.260;6.394;2022-10-16T08:20:41;13.10;99.90
51922;DHT22;37948;53.260;6.394;2022-10-16T08:23:08;13.10;99.90
51922;DHT22;37948;53.260;6.394;2022-10-16T08:25:35;13.20;99.90
51922;DHT22;37948;53.260;6.394;2022-10-16T08:28:06;13.20;99.90
51922;DHT22;37948;53.260;6.394;2022-10-16T08:30:33;13.20;99.90
51922;DHT22;37948;53.260;6.394;2022-10-16T08:32:58;13.30;99.90
51922;DHT22;37948;53.260;6.394;2022-10-16T08:35:24;13.20;99.90
51922;DHT22;37948;53.260;6.394;2022-10-16T08:37:50;13.20;99.90
51922;DHT22;37948;53.260;6.394;2022-10-16T08:40:22;13.30;99.90
51922;DHT22;37948;53.260;6.394;2022-10-16T08:46:24;13.40;99.90
51922;DHT22;37948;53.260;6.394;2022-10-16T08:48:57;13.40;99.90
51922;DHT22;37948;53.260;6.394;2022-10-16T08:51:27;13.40;99.90
51922;DHT22;37948;53.260;6.394;2022-10-16T08:53:59;13.50;99.90
51922;DHT22;37948;53.260;6.394;2022-10-16T08:56:27;13.40;99.90
51922;DHT22;37948;53.260;6.394;2022-10-16T08:58:54;13.50;99.90
51922;DHT22;37948;53.260;6.394;2022-10-16T09:01:21;13.50;99.90
51922;DHT22;37948;53.260;6.394;2022-10-16T09:06:56;13.40;99.90
51922;DHT22;37948;53.260;6.394;2022-10-16T09:09:38;13.40;99.90
51922;DHT22;37948;53.260;6.394;2022-10-16T09:12:12;13.40;99.90
51922;DHT22;37948;53.260;6.394;2022-10-16T09:14:52;13.40;99.90
51922;DHT22;37948;53.260;6.394;2022-10-16T09:23:10;13.60;99.90
51922;DHT22;37948;53.260;6.394;2022-10-16T09:25:39;13.60;99.90
51922;DHT22;37948;53.260;6.394;2022-10-16T09:28:08;13.60;99.90
51922;DHT22;37948;53.260;6.394;2022-10-16T09:30:34;13.60;99.90
51922;DHT22;37948;53.260;6.394;2022-10-16T09:33:00;13.70;99.90
51922;DHT22;37948;53.260;6.394;2022-10-16T09:35:45;13.80;99.90
51922;DHT22;37948;53.260;6.394;2022-10-16T09:38:27;13.80;99.90
51922;DHT22;37948;53.260;6.394;2022-10-16T09:40:54;13.80;99.90
51922;DHT22;37948;53.260;6.394;2022-10-16T09:43:26;13.90;99.90
51922;DHT22;37948;53.260;6.394;2022-10-16T09:46:05;13.90;99.90
51922;DHT22;37948;53.260;6.394;2022-10-16T09:48:37;14.00;99.90
51922;DHT22;37948;53.260;6.394;2022-10-16T09:51:05;14.10;99.90
51922;DHT22;37948;53.260;6.394;2022-10-16T09:53:43;14.20;99.90
51922;DHT22;37948;53.260;6.394;2022-10-16T09:56:11;14.30;99.90
51922;DHT22;37948;53.260;6.394;2022-10-16T09:58:42;14.40;99.90
51922;DHT22;37948;53.260;6.394;2022-10-16T10:01:14;14.50;99.90
51922;DHT22;37948;53.260;6.394;2022-10-16T10:03:42;14.60;99.90
51922;DHT22;37948;53.260;6.394;2022-10-16T10:06:26;14.70;99.90
51922;DHT22;37948;53.260;6.394;2022-10-16T10:09:15;14.70;99.90
51922;DHT22;37948;53.260;6.394;2022-10-16T10:11:54;14.80;99.90
51922;DHT22;37948;53.260;6.394;2022-10-16T10:14:25;14.90;99.90
51922;DHT22;37948;53.260;6.394;2022-10-16T10:17:01;14.90;99.90
51922;DHT22;37948;53.260;6.394;2022-10-16T10:19:27;15.00;99.90
51922;DHT22;37948;53.260;6.394;2022-10-16T10:21:53;15.10;99.90
51922;DHT22;37948;53.260;6.394;2022-10-16T10:24:19;15.10;99.90
51922;DHT22;37948;53.260;6.394;2022-10-16T10:29:35;15.30;99.90
51922;DHT22;37948;53.260;6.394;2022-10-16T10:35:12;15.50;99.90
51922;DHT22;37948;53.260;6.394;2022-10-16T10:41:01;15.60;99.90
51922;DHT22;37948;53.260;6.394;2022-10-16T10:43:50;15.70;99.90
51922;DHT22;37948;53.260;6.394;2022-10-16T10:46:35;15.70;99.90
51922;DHT22;37948;53.260;6.394;2022-10-16T10:57:29;15.70;99.90
51922;DHT22;37948;53.260;6.394;2022-10-16T11:00:13;15.70;99.90
51922;DHT22;37948;53.260;6.394;2022-10-16T11:03:06;15.80;99.90
51922;DHT22;37948;53.260;6.394;2022-10-16T11:05:49;15.80;99.90
51922;DHT22;37948;53.260;6.394;2022-10-16T11:08:34;15.70;99.90
51922;DHT22;37948;53.260;6.394;2022-10-16T11:11:24;15.70;99.90
51922;DHT22;37948;53.260;6.394;2022-10-16T11:14:19;15.60;99.90
51922;DHT22;37948;53.260;6.394;2022-10-16T11:16:54;15.50;99.90
51922;DHT22;37948;53.260;6.394;2022-10-16T11:25:23;15.10;99.90
51922;DHT22;37948;53.260;6.394;2022-10-16T11:30:56;14.90;99.90
51922;DHT22;37948;53.260;6.394;2022-10-16T11:36:23;14.70;99.90
51922;DHT22;37948;53.260;6.394;2022-10-16T11:41:29;14.70;99.90
51922;DHT22;37948;53.260;6.394;2022-10-16T11:44:05;14.80;99.90
51922;DHT22;37948;53.260;6.394;2022-10-16T11:46:32;14.90;99.90
51922;DHT22;37948;53.260;6.394;2022-10-16T11:49:12;15.00;99.90
51922;DHT22;37948;53.260;6.394;2022-10-16T11:54:35;15.30;99.90
51922;DHT22;37948;53.260;6.394;2022-10-16T11:57:12;15.20;99.90
51922;DHT22;37948;53.260;6.394;2022-10-16T11:59:55;15.20;99.90
51922;DHT22;37948;53.260;6.394;2022-10-16T12:02:54;15.10;99.90
51922;DHT22;37948;53.260;6.394;2022-10-16T12:10:31;15.10;99.90
51922;DHT22;37948;53.260;6.394;2022-10-16T12:13:32;15.00;99.90
51922;DHT22;37948;53.260;6.394;2022-10-16T12:16:20;15.10;99.90
51922;DHT22;37948;53.260;6.394;2022-10-16T12:18:48;15.20;99.90
51922;DHT22;37948;53.260;6.394;2022-10-16T12:21:16;15.10;99.90
51922;DHT22;37948;53.260;6.394;2022-10-16T12:23:48;15.10;99.90
51922;DHT22;37948;53.260;6.394;2022-10-16T12:26:26;15.10;99.90
51922;DHT22;37948;53.260;6.394;2022-10-16T12:28:54;15.10;99.90
51922;DHT22;37948;53.260;6.394;2022-10-16T12:31:20;15.10;99.90
51922;DHT22;37948;53.260;6.394;2022-10-16T12:34:01;15.00;99.90
51922;DHT22;37948;53.260;6.394;2022-10-16T12:36:30;15.00;99.90
51922;DHT22;37948;53.260;6.394;2022-10-16T12:38:56;15.10;99.90
51922;DHT22;37948;53.260;6.394;2022-10-16T12:41:30;15.10;99.90
51922;DHT22;37948;53.260;6.394;2022-10-16T12:43:56;15.20;99.90
51922;DHT22;37948;53.260;6.394;2022-10-16T12:51:56;15.40;99.90
51922;DHT22;37948;53.260;6.394;2022-10-16T12:54:31;15.40;99.90
51922;DHT22;37948;53.260;6.394;2022-10-16T12:57:09;15.40;99.90
51922;DHT22;37948;53.260;6.394;2022-10-16T13:11:29;15.10;99.90
51922;DHT22;37948;53.260;6.394;2022-10-16T13:19:51;15.10;99.90
51922;DHT22;37948;53.260;6.394;2022-10-16T13:22:26;15.10;99.90
51922;DHT22;37948;53.260;6.394;2022-10-16T13:28:07;15.20;99.90
51922;DHT22;37948;53.260;6.394;2022-10-16T13:30:44;15.20;99.90
51922;DHT22;37948;53.260;6.394;2022-10-16T13:33:35;15.20;99.90
51922;DHT22;37948;53.260;6.394;2022-10-16T13:36:03;15.20;99.90
51922;DHT22;37948;53.260;6.394;2022-10-16T13:38:34;15.30;99.90
51922;DHT22;37948;53.260;6.394;2022-10-16T13:41:11;15.30;99.90
51922;DHT22;37948;53.260;6.394;2022-10-16T13:43:49;15.30;99.90
51922;DHT22;37948;53.260;6.394;2022-10-16T13:46:21;15.30;99.90
51922;DHT22;37948;53.260;6.394;2022-10-16T13:49:02;15.40;99.90
51922;DHT22;37948;53.260;6.394;2022-10-16T13:51:29;15.40;99.90
51922;DHT22;37948;53.260;6.394;2022-10-16T13:53:55;15.50;99.90
51922;DHT22;37948;53.260;6.394;2022-10-16T13:56:24;15.50;99.90
51922;DHT22;37948;53.260;6.394;2022-10-16T13:59:05;15.50;99.90
51922;DHT22;37948;53.260;6.394;2022-10-16T14:01:31;15.50;99.90
51922;DHT22;37948;53.260;6.394;2022-10-16T14:04:07;15.50;99.90
51922;DHT22;37948;53.260;6.394;2022-10-16T14:06:34;15.50;99.90
51922;DHT22;37948;53.260;6.394;2022-10-16T14:09:19;15.50;99.90
51922;DHT22;37948;53.260;6.394;2022-10-16T14:11:49;15.60;99.90
51922;DHT22;37948;53.260;6.394;2022-10-16T14:14:18;15.50;99.90
51922;DHT22;37948;53.260;6.394;2022-10-16T14:16:44;15.50;99.90
51922;DHT22;37948;53.260;6.394;2022-10-16T14:19:25;15.50;99.90
51922;DHT22;37948;53.260;6.394;2022-10-16T14:21:52;15.60;99.90
51922;DHT22;37948;53.260;6.394;2022-10-16T14:24:30;15.60;99.90
51922;DHT22;37948;53.260;6.394;2022-10-16T14:26:57;15.60;99.90
51922;DHT22;37948;53.260;6.394;2022-10-16T14:29:23;15.60;99.90
51922;DHT22;37948;53.260;6.394;2022-10-16T14:31:58;15.60;99.90
51922;DHT22;37948;53.260;6.394;2022-10-16T14:37:05;15.50;99.90
51922;DHT22;37948;53.260;6.394;2022-10-16T14:39:33;15.50;99.90
51922;DHT22;37948;53.260;6.394;2022-10-16T14:41:59;15.50;99.90
51922;DHT22;37948;53.260;6.394;2022-10-16T14:44:43;15.40;99.90
51922;DHT22;37948;53.260;6.394;2022-10-16T14:47:18;15.50;99.90
51922;DHT22;37948;53.260;6.394;2022-10-16T14:49:48;15.40;99.90
51922;DHT22;37948;53.260;6.394;2022-10-16T14:52:13;15.30;99.90
51922;DHT22;37948;53.260;6.394;2022-10-16T14:54:40;15.20;99.90
51922;DHT22;37948;53.260;6.394;2022-10-16T14:57:05;15.10;99.90
51922;DHT22;37948;53.260;6.394;2022-10-16T14:59:40;15.10;99.90
51922;DHT22;37948;53.260;6.394;2022-10-16T15:02:30;15.00;99.90
51922;DHT22;37948;53.260;6.394;2022-10-16T15:04:56;15.00;99.90
51922;DHT22;37948;53.260;6.394;2022-10-16T15:07:22;14.90;99.90
51922;DHT22;37948;53.260;6.394;2022-10-16T15:09:48;14.80;99.90
51922;DHT22;37948;53.260;6.394;2022-10-16T15:12:14;14.80;99.90
51922;DHT22;37948;53.260;6.394;2022-10-16T15:14:39;14.80;99.90
51922;DHT22;37948;53.260;6.394;2022-10-16T15:17:05;14.70;99.90
51922;DHT22;37948;53.260;6.394;2022-10-16T15:19:30;14.70;99.90
51922;DHT22;37948;53.260;6.394;2022-10-16T15:21:56;14.70;99.90
51922;DHT22;37948;53.260;6.394;2022-10-16T15:24:22;14.60;99.90
51922;DHT22;37948;53.260;6.394;2022-10-16T15:26:48;14.60;99.90
51922;DHT22;37948;53.260;6.394;2022-10-16T15:29:15;14.50;99.90
51922;DHT22;37948;53.260;6.394;2022-10-16T15:31:41;14.60;99.90
51922;DHT22;37948;53.260;6.394;2022-10-16T15:34:09;14.50;99.90
51922;DHT22;37948;53.260;6.394;2022-10-16T15:36:37;14.50;99.90
51922;DHT22;37948;53.260;6.394;2022-10-16T15:39:04;14.50;99.90
51922;DHT22;37948;53.260;6.394;2022-10-16T15:41:31;14.40;99.90
51922;DHT22;37948;53.260;6.394;2022-10-16T15:43:56;14.40;99.90
51922;DHT22;37948;53.260;6.394;2022-10-16T15:46:23;14.40;99.90
51922;DHT22;37948;53.260;6.394;2022-10-16T15:48:50;14.30;99.90
51922;DHT22;37948;53.260;6.394;2022-10-16T15:51:16;14.30;99.90
51922;DHT22;37948;53.260;6.394;2022-10-16T15:53:42;14.30;99.90
51922;DHT22;37948;53.260;6.394;2022-10-16T15:56:10;14.30;99.90
51922;DHT22;37948;53.260;6.394;2022-10-16T15:58:36;14.20;99.90
51922;DHT22;37948;53.260;6.394;2022-10-16T16:01:03;14.20;99.90
51922;DHT22;37948;53.260;6.394;2022-10-16T16:03:32;14.20;99.90
51922;DHT22;37948;53.260;6.394;2022-10-16T16:05:58;14.20;99.90
51922;DHT22;37948;53.260;6.394;2022-10-16T16:08:28;14.20;99.90
51922;DHT22;37948;53.260;6.394;2022-10-16T16:10:58;14.10;99.90
51922;DHT22;37948;53.260;6.394;2022-10-16T16:13:24;14.10;99.90
51922;DHT22;37948;53.260;6.394;2022-10-16T16:15:49;14.10;99.90
51922;DHT22;37948;53.260;6.394;2022-10-16T16:18:15;14.10;99.90
51922;DHT22;37948;53.260;6.394;2022-10-16T16:20:40;14.00;99.90
51922;DHT22;37948;53.260;6.394;2022-10-16T16:23:06;14.00;99.90
51922;DHT22;37948;53.260;6.394;2022-10-16T16:25:32;13.90;99.90
51922;DHT22;37948;53.260;6.394;2022-10-16T16:27:57;13.90;99.90
51922;DHT22;37948;53.260;6.394;2022-10-16T16:30:23;13.90;99.90
51922;DHT22;37948;53.260;6.394;2022-10-16T16:32:48;13.90;99.90
51922;DHT22;37948;53.260;6.394;2022-10-16T16:35:14;13.90;99.90
51922;DHT22;37948;53.260;6.394;2022-10-16T16:37:39;13.80;99.90
51922;DHT22;37948;53.260;6.394;2022-10-16T16:40:05;13.80;99.90
51922;DHT22;37948;53.260;6.394;2022-10-16T16:42:31;13.80;99.90
51922;DHT22;37948;53.260;6.394;2022-10-16T16:44:56;13.70;99.90
51922;DHT22;37948;53.260;6.394;2022-10-16T16:47:22;13.70;99.90
51922;DHT22;37948;53.260;6.394;2022-10-16T16:49:48;13.70;99.90
51922;DHT22;37948;53.260;6.394;2022-10-16T16:52:14;13.70;99.90
51922;DHT22;37948;53.260;6.394;2022-10-16T16:54:40;13.70;99.90
51922;DHT22;37948;53.260;6.394;2022-10-16T16:57:05;13.70;99.90
51922;DHT22;37948;53.260;6.394;2022-10-16T16:59:31;13.60;99.90
51922;DHT22;37948;53.260;6.394;2022-10-16T17:02:00;13.60;99.90
51922;DHT22;37948;53.260;6.394;2022-10-16T17:04:25;13.60;99.90
51922;DHT22;37948;53.260;6.394;2022-10-16T17:06:53;13.60;99.90
51922;DHT22;37948;53.260;6.394;2022-10-16T17:09:20;13.60;99.90
51922;DHT22;37948;53.260;6.394;2022-10-16T17:11:45;13.50;99.90
51922;DHT22;37948;53.260;6.394;2022-10-16T17:14:12;13.50;99.90
51922;DHT22;37948;53.260;6.394;2022-10-16T17:16:39;13.50;99.90
51922;DHT22;37948;53.260;6.394;2022-10-16T17:19:07;13.50;99.90